Time;durP1;ratioP1;P1;durP2;ratioP2;P2;SDS_P1;SDS_P2;PMS_P1;PMS_P2;Temp;Humidity;BMP_temperature;BMP_pressure;BME280_temperature;BME280_humidity;BME280_pressure;Samples;Min_cycle;Max_cycle;Signal;HPM_P1;HPM_P2
2023/10/20 00:02:09;;;;;;;;;40.00;34.00;;;;;15.57;100.00;96749.25;6288224;27;96407;-71
2023/10/20 00:05:13;;;;;;;;;40.00;35.00;;;;;15.54;100.00;96764.22;6286780;27;96572;-71
2023/10/20 00:08:17;;;;;;;;;40.00;34.80;;;;;15.51;100.00;96774.91;6269253;27;98659;-71
2023/10/20 00:11:20;;;;;;;;;40.80;34.00;;;;;15.49;100.00;96777.09;6286847;27;96434;-71
2023/10/20 00:14:25;;;;;;;;;39.00;34.60;;;;;15.38;100.00;96760.22;6254997;27;96360;-71
2023/10/20 00:17:29;;;;;;;;;40.00;34.00;;;;;15.41;100.00;96778.63;6278560;27;96467;-70
2023/10/20 00:20:32;;;;;;;;;42.00;35.00;;;;;15.35;100.00;96766.25;6286041;27;96685;-70
2023/10/20 00:23:35;;;;;;;;;41.40;35.00;;;;;15.46;100.00;96774.97;6269288;27;96755;-70
2023/10/20 00:26:39;;;;;;;;;46.00;37.00;;;;;15.44;100.00;96766.34;6287450;27;96377;-71
2023/10/20 00:29:43;;;;;;;;;41.00;35.00;;;;;15.40;100.00;96749.84;6271162;27;96739;-70
2023/10/20 00:32:47;;;;;;;;;39.00;34.00;;;;;15.38;100.00;96754.00;6270756;27;96673;-69
2023/10/20 00:35:50;;;;;;;;;38.40;34.20;;;;;15.39;100.00;96756.41;6273955;27;96309;-69
2023/10/20 00:38:53;;;;;;;;;38.00;33.00;;;;;15.41;100.00;96751.47;6244423;27;96794;-68
2023/10/20 00:41:57;;;;;;;;;44.75;36.50;;;;;15.34;100.00;96742.13;6267737;27;96520;-68
2023/10/20 00:45:02;;;;;;;;;39.60;34.60;;;;;15.40;100.00;96757.19;6293499;27;96413;-68
2023/10/20 00:48:06;;;;;;;;;43.00;35.75;;;;;15.39;100.00;96758.31;6293653;27;96604;-68
2023/10/20 00:51:11;;;;;;;;;45.00;38.00;;;;;15.35;100.00;96760.81;6275520;27;96628;-69
2023/10/20 00:54:16;;;;;;;;;45.00;36.25;;;;;15.39;100.00;96761.03;6292862;27;96484;-69
2023/10/20 00:57:19;;;;;;;;;45.00;38.00;;;;;15.38;100.00;96749.38;6293813;27;96923;-68
2023/10/20 01:00:25;;;;;;;;;44.50;37.00;;;;;15.39;100.00;96745.56;6293919;27;96415;-68
2023/10/20 01:03:32;;;;;;;;;44.20;37.00;;;;;15.37;100.00;96736.91;6272578;22;96901;-65
2023/10/20 01:06:37;;;;;;;;;44.50;36.75;;;;;15.39;100.00;96737.41;6241029;28;96355;-66
2023/10/20 01:09:43;;;;;;;;;46.00;38.50;;;;;15.39;100.00;96729.25;6241066;28;96969;-67
2023/10/20 01:12:46;;;;;;;;;43.60;36.40;;;;;15.42;100.00;96738.69;6238000;28;97905;-67
2023/10/20 01:15:51;;;;;;;;;41.60;35.00;;;;;15.42;100.00;96725.13;6239349;28;97083;-66
2023/10/20 01:18:55;;;;;;;;;41.00;35.00;;;;;15.41;100.00;96731.66;6238130;28;97781;-64
2023/10/20 01:21:59;;;;;;;;;46.00;38.00;;;;;15.43;100.00;96722.09;6240373;28;96532;-65
2023/10/20 01:25:04;;;;;;;;;44.40;36.00;;;;;15.37;100.00;96726.03;6238836;28;96883;-65
2023/10/20 01:28:07;;;;;;;;;45.00;35.75;;;;;15.30;100.00;96730.25;6239232;28;96498;-64
2023/10/20 01:31:10;;;;;;;;;41.60;35.40;;;;;15.19;100.00;96729.69;6238967;27;96512;-64
2023/10/20 01:34:14;;;;;;;;;37.20;33.00;;;;;15.09;100.00;96709.00;6239663;28;97652;-65
2023/10/20 01:37:18;;;;;;;;;41.40;33.80;;;;;14.98;100.00;96696.75;6238333;28;96317;-64
2023/10/20 01:40:23;;;;;;;;;43.00;37.00;;;;;15.03;100.00;96687.69;6238124;27;96471;-64
2023/10/20 01:43:26;;;;;;;;;41.40;35.40;;;;;15.00;100.00;96677.44;6221719;28;97809;-65
2023/10/20 01:46:29;;;;;;;;;36.50;33.00;;;;;14.90;100.00;96662.19;6239828;28;97240;-64
2023/10/20 01:49:33;;;;;;;;;42.80;35.80;;;;;14.98;100.00;96685.88;6238127;28;96882;-65
2023/10/20 01:52:37;;;;;;;;;41.00;36.00;;;;;15.01;100.00;96684.47;6237759;28;96293;-65
2023/10/20 01:55:41;;;;;;;;;43.60;35.60;;;;;15.02;100.00;96675.22;6239061;28;96350;-64
2023/10/20 01:58:45;;;;;;;;;40.80;34.00;;;;;14.98;100.00;96682.38;6221124;28;96670;-67
2023/10/20 02:01:48;;;;;;;;;45.20;38.00;;;;;14.96;100.00;96668.28;6235415;28;99573;-67
2023/10/20 02:04:51;;;;;;;;;42.20;35.00;;;;;14.90;100.00;96658.69;6237541;27;97243;-64
2023/10/20 02:07:54;;;;;;;;;42.00;35.00;;;;;14.96;100.00;96662.88;6238364;27;96918;-64
2023/10/20 02:10:59;;;;;;;;;43.25;37.00;;;;;14.97;100.00;96665.28;6239170;27;97020;-64
2023/10/20 02:14:04;;;;;;;;;40.00;33.00;;;;;15.08;100.00;96669.41;6237442;28;96636;-65
2023/10/20 02:17:07;;;;;;;;;38.00;33.00;;;;;15.15;100.00;96645.34;6238785;28;96896;-65
2023/10/20 02:20:11;;;;;;;;;37.00;32.50;;;;;15.11;100.00;96646.25;6237923;28;96718;-64
2023/10/20 02:23:14;;;;;;;;;37.00;31.50;;;;;15.11;100.00;96644.34;6237169;28;96510;-64
2023/10/20 02:26:20;;;;;;;;;38.50;33.00;;;;;15.12;100.00;96645.97;6239080;28;96361;-64
2023/10/20 02:29:23;;;;;;;;;32.00;29.00;;;;;15.02;100.00;96629.09;6238419;28;96447;-65
2023/10/20 02:32:26;;;;;;;;;35.50;32.00;;;;;14.95;100.00;96613.25;6236545;28;97631;-64
2023/10/20 02:35:30;;;;;;;;;35.50;31.25;;;;;15.05;100.00;96637.44;6233546;27;96774;-65
2023/10/20 02:38:33;;;;;;;;;38.50;32.00;;;;;15.04;100.00;96646.69;6234755;28;96483;-65
2023/10/20 02:41:38;;;;;;;;;34.00;30.00;;;;;15.06;100.00;96655.31;6204568;28;99264;-64
2023/10/20 02:44:41;;;;;;;;;32.20;30.00;;;;;15.10;100.00;96659.03;6234622;28;96320;-63
2023/10/20 02:47:44;;;;;;;;;37.40;32.00;;;;;15.15;100.00;96653.47;6236248;28;96462;-63
2023/10/20 02:50:48;;;;;;;;;28.60;27.60;;;;;15.17;100.00;96643.13;6236159;28;97095;-65
2023/10/20 02:53:51;;;;;;;;;32.20;30.20;;;;;15.18;100.00;96633.91;6237473;28;96905;-65
2023/10/20 02:56:57;;;;;;;;;34.67;31.33;;;;;15.21;100.00;96623.53;6237274;27;96267;-65
2023/10/20 03:00:00;;;;;;;;;32.00;29.40;;;;;15.18;100.00;96616.81;6238173;28;96505;-65
2023/10/20 03:03:09;;;;;;;;;32.40;29.60;;;;;15.14;100.00;96632.91;6238388;28;96382;-64
2023/10/20 03:06:12;;;;;;;;;33.75;29.50;;;;;15.19;100.00;96631.97;6236542;28;96808;-64
2023/10/20 03:09:15;;;;;;;;;28.00;26.40;;;;;15.28;100.00;96632.06;6235179;27;96458;-64
2023/10/20 03:12:20;;;;;;;;;34.00;28.40;;;;;15.32;100.00;96631.13;6236409;28;96428;-64
2023/10/20 03:15:23;;;;;;;;;32.00;28.25;;;;;15.41;100.00;96637.44;6222323;28;96442;-65
2023/10/20 03:18:26;;;;;;;;;33.25;28.25;;;;;15.47;100.00;96630.78;6211544;28;96708;-65
2023/10/20 03:21:30;;;;;;;;;28.00;26.80;;;;;15.49;100.00;96619.63;6227212;28;98583;-65
2023/10/20 03:24:33;;;;;;;;;29.00;27.00;;;;;15.49;100.00;96628.53;6222761;28;96425;-65
2023/10/20 03:27:38;;;;;;;;;33.00;30.00;;;;;15.48;100.00;96618.00;6235647;28;96973;-65
2023/10/20 03:30:43;;;;;;;;;31.80;29.80;;;;;15.48;100.00;96616.09;6226850;28;96745;-64
2023/10/20 03:33:46;;;;;;;;;34.00;30.40;;;;;15.43;100.00;96610.78;6235929;27;96562;-65
2023/10/20 03:36:49;;;;;;;;;33.40;31.40;;;;;15.38;100.00;96599.25;6219379;28;96846;-67
2023/10/20 03:39:53;;;;;;;;;37.20;32.60;;;;;15.32;100.00;96593.13;6219209;28;99072;-64
2023/10/20 03:42:58;;;;;;;;;35.00;32.00;;;;;15.26;100.00;96586.22;6237995;28;96394;-64
2023/10/20 03:46:01;;;;;;;;;38.00;33.00;;;;;15.17;100.00;96588.84;6233050;28;96665;-65
2023/10/20 03:49:04;;;;;;;;;32.00;30.00;;;;;15.11;100.00;96586.56;6231805;28;97520;-64
2023/10/20 03:52:11;;;;;;;;;35.00;30.60;;;;;15.04;100.00;96587.00;6207805;28;96733;-64
2023/10/20 03:55:15;;;;;;;;;38.00;33.00;;;;;15.00;100.00;96580.56;6211144;28;98555;-64
2023/10/20 03:58:20;;;;;;;;;34.00;31.60;;;;;14.99;100.00;96580.88;6235777;27;96612;-64
2023/10/20 04:01:23;;;;;;;;;36.20;32.80;;;;;14.98;100.00;96566.50;6234524;28;96481;-64
2023/10/20 04:04:26;;;;;;;;;39.00;32.75;;;;;14.99;100.00;96576.25;6226777;27;96828;-64
2023/10/20 04:07:30;;;;;;;;;37.00;32.00;;;;;14.99;100.00;96573.56;6222362;28;96437;-65
2023/10/20 04:10:34;;;;;;;;;37.00;32.00;;;;;15.01;100.00;96568.59;6220897;28;98444;-64
2023/10/20 04:13:39;;;;;;;;;35.80;32.00;;;;;14.98;100.00;96574.66;6234601;27;97140;-65
2023/10/20 04:16:44;;;;;;;;;36.00;32.00;;;;;15.03;100.00;96571.03;6226467;27;96604;-65
2023/10/20 04:19:47;;;;;;;;;45.00;36.40;;;;;14.96;100.00;96567.91;6231705;28;96338;-65
2023/10/20 04:22:50;;;;;;;;;36.00;32.00;;;;;15.01;100.00;96565.88;6230939;28;97041;-64
2023/10/20 04:25:53;;;;;;;;;34.20;31.20;;;;;15.02;100.00;96564.78;6224525;28;96677;-65
2023/10/20 04:29:08;;;;;;;;;31.00;28.80;;;;;15.04;100.00;96564.50;6233834;28;96890;-66
2023/10/20 04:49:28;;;;;;;;;29.60;27.80;;;;;15.22;100.00;96563.50;6219793;28;98218;-65
2023/10/20 04:59:09;;;;;;;;;29.33;27.00;;;;;15.11;100.00;96554.00;6222477;28;96459;-65
2023/10/20 05:02:25;;;;;;;;;29.00;27.00;;;;;15.06;100.00;96551.41;6234239;27;96557;-65
2023/10/20 05:05:33;;;;;;;;;30.00;26.20;;;;;15.05;100.00;96558.72;6230413;28;96545;-66
2023/10/20 05:08:36;;;;;;;;;28.20;26.20;;;;;15.09;100.00;96561.66;6232230;28;96703;-65
2023/10/20 05:11:40;;;;;;;;;28.20;27.80;;;;;15.08;100.00;96568.19;6234576;28;96684;-65
2023/10/20 05:14:43;;;;;;;;;31.00;29.00;;;;;15.15;100.00;96565.84;6233859;27;97342;-65
2023/10/20 05:17:50;;;;;;;;;31.60;29.00;;;;;15.22;100.00;96560.00;6235875;28;97766;-65
2023/10/20 05:20:55;;;;;;;;;32.80;30.00;;;;;15.16;100.00;96562.81;6239647;27;96363;-66
2023/10/20 05:23:58;;;;;;;;;27.50;25.50;;;;;15.17;100.00;96567.16;6249114;27;98565;-66
2023/10/20 05:27:01;;;;;;;;;28.50;26.50;;;;;15.20;100.00;96562.22;6237734;28;96620;-65
2023/10/20 05:30:05;;;;;;;;;28.40;26.60;;;;;15.13;100.00;96555.31;6220321;28;96414;-66
2023/10/20 05:33:12;;;;;;;;;26.20;24.00;;;;;15.22;100.00;96574.38;6237347;28;96744;-65
2023/10/20 05:36:16;;;;;;;;;28.75;28.00;;;;;15.29;100.00;96573.94;6236144;28;96704;-66
2023/10/20 05:39:21;;;;;;;;;26.60;25.20;;;;;15.31;100.00;96558.94;6239173;28;96600;-65
2023/10/20 05:42:24;;;;;;;;;26.25;23.25;;;;;15.32;100.00;96562.47;6235412;28;96507;-64
2023/10/20 05:45:32;;;;;;;;;27.80;26.80;;;;;15.32;100.00;96562.47;6239425;27;96354;-64
2023/10/20 05:48:38;;;;;;;;;21.60;20.20;;;;;15.40;100.00;96564.44;6221598;28;96885;-64
2023/10/20 05:51:41;;;;;;;;;28.00;25.80;;;;;15.40;100.00;96570.66;6236582;28;96623;-64
2023/10/20 05:54:44;;;;;;;;;24.80;24.20;;;;;15.43;100.00;96561.13;6239756;28;96277;-64
2023/10/20 05:57:47;;;;;;;;;34.50;30.25;;;;;15.44;100.00;96558.06;6239756;27;96607;-63
2023/10/20 06:00:50;;;;;;;;;25.80;24.40;;;;;15.49;100.00;96568.03;6239119;28;96506;-64
2023/10/20 06:04:08;;;;;;;;;25.00;22.60;;;;;15.55;100.00;96569.53;6220354;27;97183;-64
2023/10/20 06:07:11;;;;;;;;;21.20;19.80;;;;;15.62;100.00;96564.47;6239180;28;96752;-64
2023/10/20 06:10:21;;;;;;;;;23.80;22.20;;;;;15.65;100.00;96571.19;6237371;28;99186;-65
2023/10/20 06:13:25;;;;;;;;;21.40;21.00;;;;;15.70;100.00;96566.44;6236218;28;96528;-64
2023/10/20 06:16:28;;;;;;;;;23.00;21.25;;;;;15.71;100.00;96565.31;6238180;28;96316;-65
2023/10/20 06:19:32;;;;;;;;;23.80;22.40;;;;;15.75;100.00;96547.28;6232234;28;96457;-63
2023/10/20 06:22:35;;;;;;;;;23.00;21.00;;;;;15.80;100.00;96554.50;6238125;28;97635;-64
2023/10/20 06:25:38;;;;;;;;;21.60;21.60;;;;;15.80;100.00;96555.28;6238047;27;96347;-64
2023/10/20 06:28:43;;;;;;;;;24.00;23.00;;;;;15.76;100.00;96543.47;6237855;28;96820;-64
2023/10/20 06:31:57;;;;;;;;;24.60;23.60;;;;;15.91;100.00;96537.63;6237962;28;96496;-64
2023/10/20 06:35:02;;;;;;;;;21.00;19.00;;;;;15.99;100.00;96545.00;6239072;27;96910;-63
2023/10/20 06:38:13;;;;;;;;;21.60;19.80;;;;;16.06;100.00;96538.31;6236157;27;96776;-64
2023/10/20 06:41:17;;;;;;;;;18.40;17.40;;;;;16.05;100.00;96553.81;6237294;27;97124;-64
2023/10/20 06:44:20;;;;;;;;;22.50;20.00;;;;;16.06;100.00;96541.84;6234712;28;98557;-64
2023/10/20 06:47:23;;;;;;;;;22.60;20.00;;;;;16.10;100.00;96550.97;6234381;28;96505;-64
2023/10/20 06:50:28;;;;;;;;;22.60;19.60;;;;;16.05;100.00;96551.09;6236546;27;96558;-64
2023/10/20 06:53:31;;;;;;;;;22.00;19.00;;;;;16.15;100.00;96548.13;6235872;28;97861;-62
2023/10/20 06:56:34;;;;;;;;;21.60;20.00;;;;;16.20;100.00;96550.69;6236623;28;96755;-63
2023/10/20 06:59:37;;;;;;;;;24.60;23.60;;;;;16.18;100.00;96552.91;6237627;28;97062;-62
2023/10/20 07:02:41;;;;;;;;;21.40;18.60;;;;;16.12;100.00;96542.50;6232707;28;96390;-62
2023/10/20 07:05:47;;;;;;;;;18.00;17.00;;;;;16.08;100.00;96539.59;6238006;28;96372;-62
2023/10/20 07:08:51;;;;;;;;;18.20;16.20;;;;;16.18;100.00;96525.72;6238660;28;96289;-62
2023/10/20 07:11:54;;;;;;;;;22.00;19.00;;;;;16.31;100.00;96524.03;6238044;28;96393;-62
2023/10/20 07:14:57;;;;;;;;;20.00;19.40;;;;;16.43;100.00;96526.91;6237768;27;96576;-62
2023/10/20 07:18:00;;;;;;;;;21.00;20.00;;;;;16.40;100.00;96516.69;6237908;28;98127;-62
2023/10/20 07:21:05;;;;;;;;;20.00;18.00;;;;;16.40;100.00;96512.06;6237490;27;96699;-62
2023/10/20 07:24:08;;;;;;;;;21.00;18.25;;;;;16.58;100.00;96515.63;6236432;28;97569;-62
2023/10/20 07:27:11;;;;;;;;;17.60;16.60;;;;;16.55;100.00;96510.00;6237134;28;96539;-63
2023/10/20 07:30:16;;;;;;;;;19.00;18.67;;;;;16.70;100.00;96521.25;6238074;27;96507;-62
2023/10/20 07:33:19;;;;;;;;;18.00;17.00;;;;;16.69;100.00;96505.25;6237489;27;96497;-63
2023/10/20 07:36:24;;;;;;;;;15.50;14.50;;;;;16.80;100.00;96507.34;6236207;28;99106;-62
2023/10/20 07:39:27;;;;;;;;;19.80;16.80;;;;;16.91;100.00;96504.31;6236382;27;96480;-63
2023/10/20 07:42:30;;;;;;;;;18.80;17.80;;;;;17.19;100.00;96508.31;6237982;28;96369;-62
2023/10/20 07:45:38;;;;;;;;;15.00;14.00;;;;;17.32;100.00;96494.50;6237938;28;96373;-62
2023/10/20 07:48:41;;;;;;;;;19.80;18.20;;;;;17.35;100.00;96498.50;6235502;28;96339;-62
2023/10/20 07:51:47;;;;;;;;;20.60;19.40;;;;;17.36;100.00;96489.22;6233643;28;98601;-63
2023/10/20 07:54:50;;;;;;;;;20.00;19.00;;;;;17.23;100.00;96457.53;6235816;28;96361;-62
2023/10/20 07:57:55;;;;;;;;;20.00;19.00;;;;;17.53;100.00;96483.72;6216970;28;98414;-61
2023/10/20 08:00:58;;;;;;;;;17.80;17.20;;;;;17.64;100.00;96486.94;6217169;28;99378;-62
2023/10/20 08:04:02;;;;;;;;;21.00;18.75;;;;;17.78;100.00;96484.81;6234168;28;97014;-66
2023/10/20 08:07:07;;;;;;;;;17.50;17.00;;;;;17.94;100.00;96469.50;6237517;28;96373;-65
2023/10/20 08:10:10;;;;;;;;;19.00;18.00;;;;;18.10;100.00;96480.66;6218523;28;97460;-65
2023/10/20 08:13:13;;;;;;;;;18.50;17.50;;;;;18.23;100.00;96465.97;6237081;27;96424;-65
2023/10/20 08:16:16;;;;;;;;;20.40;19.00;;;;;18.36;100.00;96470.44;6236643;28;97143;-65
2023/10/20 08:19:19;;;;;;;;;16.33;16.33;;;;;18.45;100.00;96476.63;6236413;28;96532;-65
2023/10/20 08:22:24;;;;;;;;;19.00;17.40;;;;;18.56;100.00;96466.16;6236850;28;96312;-65
2023/10/20 08:25:27;;;;;;;;;19.00;18.00;;;;;18.58;100.00;96456.50;6237054;28;96874;-66
2023/10/20 08:28:31;;;;;;;;;16.60;15.60;;;;;18.79;100.00;96472.88;6236129;28;96829;-65
2023/10/20 08:31:34;;;;;;;;;22.40;19.00;;;;;18.82;100.00;96469.47;6233447;28;96493;-64
2023/10/20 08:34:37;;;;;;;;;18.00;17.00;;;;;18.63;100.00;96460.94;6233057;27;96494;-65
2023/10/20 08:37:42;;;;;;;;;19.00;17.00;;;;;18.71;100.00;96448.38;6234219;28;96417;-65
2023/10/20 08:40:45;;;;;;;;;16.60;15.60;;;;;18.78;100.00;96445.91;6234518;28;96596;-65
2023/10/20 08:44:09;;;;;;;;;18.00;16.60;;;;;18.74;100.00;96440.31;6216138;28;96898;-65
2023/10/20 08:47:13;;;;;;;;;16.20;14.60;;;;;18.79;100.00;96450.25;6251519;27;96529;-65
2023/10/20 08:50:18;;;;;;;;;16.40;16.00;;;;;18.76;100.00;96453.66;6237358;27;97205;-65
2023/10/20 08:53:24;;;;;;;;;14.00;14.00;;;;;18.75;100.00;96450.13;6238705;28;96237;-65
2023/10/20 08:56:27;;;;;;;;;14.40;14.00;;;;;18.69;100.00;96453.38;6239647;28;98398;-65
2023/10/20 08:59:31;;;;;;;;;15.40;15.40;;;;;18.58;100.00;96456.50;6241191;27;97820;-65
2023/10/20 09:02:38;;;;;;;;;18.20;16.20;;;;;18.59;100.00;96449.91;6240949;28;96633;-65
2023/10/20 09:05:41;;;;;;;;;17.00;16.00;;;;;18.62;100.00;96437.53;6240462;27;96816;-65
2023/10/20 09:08:49;;;;;;;;;16.00;15.60;;;;;18.65;100.00;96442.34;6238809;28;96364;-65
2023/10/20 09:11:54;;;;;;;;;18.20;16.80;;;;;18.74;100.00;96451.25;6222944;28;97206;-65
2023/10/20 09:14:58;;;;;;;;;17.00;16.00;;;;;18.85;100.00;96446.19;6239739;28;96855;-63
2023/10/20 09:18:01;;;;;;;;;17.50;16.50;;;;;18.94;100.00;96453.16;6239756;28;96271;-63
2023/10/20 09:21:05;;;;;;;;;19.00;17.00;;;;;19.04;100.00;96452.75;6240307;27;96554;-62
2023/10/20 09:24:11;;;;;;;;;16.40;14.60;;;;;19.13;100.00;96436.28;6240536;28;96968;-62
2023/10/20 09:27:15;;;;;;;;;16.40;16.40;;;;;19.20;100.00;96425.63;6240217;28;96499;-62
2023/10/20 09:30:19;;;;;;;;;16.00;15.00;;;;;19.34;100.00;96420.66;6240452;28;96514;-62
2023/10/20 09:33:23;;;;;;;;;14.00;12.40;;;;;19.34;100.00;96431.59;6239126;28;96269;-62
2023/10/20 09:36:30;;;;;;;;;16.00;15.00;;;;;19.19;100.00;96429.50;6238628;28;96920;-62
2023/10/20 09:39:39;;;;;;;;;14.00;13.00;;;;;19.26;100.00;96418.81;6240924;28;96450;-63
2023/10/20 09:42:58;;;;;;;;;18.40;17.00;;;;;19.40;100.00;96413.81;6238977;28;97012;-62
2023/10/20 09:46:21;;;;;;;;;16.00;14.00;;;;;19.55;100.00;96412.41;6239177;28;99467;-63
2023/10/20 09:49:26;;;;;;;;;14.00;13.60;;;;;19.78;100.00;96405.38;6240642;27;96285;-62
2023/10/20 09:52:30;;;;;;;;;17.40;16.00;;;;;20.05;100.00;96403.91;6238079;28;96665;-63
2023/10/20 09:55:35;;;;;;;;;15.00;14.20;;;;;20.20;100.00;96410.59;6239213;28;96371;-62
2023/10/20 09:58:38;;;;;;;;;18.75;16.75;;;;;20.33;100.00;96401.25;6238773;28;96386;-62
2023/10/20 10:01:43;;;;;;;;;14.00;13.80;;;;;20.51;100.00;96407.28;6238365;27;96293;-62
2023/10/20 10:04:48;;;;;;;;;14.00;14.00;;;;;20.62;100.00;96387.28;6239228;27;96321;-62
2023/10/20 10:08:03;;;;;;;;;18.00;15.00;;;;;20.91;100.00;96377.97;6238886;27;96514;-62
2023/10/20 10:11:21;;;;;;;;;18.60;17.40;;;;;21.17;100.00;96380.25;6240266;27;96299;-62
2023/10/20 10:14:26;;;;;;;;;15.00;14.00;;;;;21.51;100.00;96379.59;6236045;28;97394;-63
2023/10/20 10:17:29;;;;;;;;;17.00;16.25;;;;;21.69;100.00;96368.28;6237413;28;96787;-62
2023/10/20 10:20:32;;;;;;;;;15.60;14.40;;;;;21.91;100.00;96370.38;6238793;28;96258;-62
2023/10/20 10:23:35;;;;;;;;;16.00;13.00;;;;;22.14;100.00;96357.63;6237323;28;97655;-64
2023/10/20 10:26:47;;;;;;;;;14.40;14.00;;;;;22.24;100.00;96370.78;6237523;28;96530;-64
2023/10/20 10:29:53;;;;;;;;;15.00;14.80;;;;;22.44;100.00;96371.63;6237101;28;96709;-65
2023/10/20 10:32:59;;;;;;;;;14.25;14.00;;;;;22.89;100.00;96371.03;6238523;28;96857;-64
2023/10/20 10:36:04;;;;;;;;;16.40;14.40;;;;;23.67;100.00;96362.28;6237594;28;96297;-64
2023/10/20 10:39:08;;;;;;;;;12.40;12.40;;;;;24.28;100.00;96361.31;6237610;28;96309;-64
2023/10/20 10:42:12;;;;;;;;;14.80;13.60;;;;;24.62;100.00;96336.59;6236665;27;96526;-64
2023/10/20 10:45:21;;;;;;;;;13.75;13.50;;;;;25.11;100.00;96355.72;6237228;28;97034;-65
2023/10/20 10:48:27;;;;;;;;;12.00;12.00;;;;;25.11;100.00;96352.94;6235318;28;98702;-65
2023/10/20 10:51:31;;;;;;;;;14.75;14.00;;;;;24.98;100.00;96347.69;6237569;28;97085;-64
2023/10/20 10:54:35;;;;;;;;;15.00;14.00;;;;;24.65;100.00;96352.34;6238143;28;97130;-65
2023/10/20 10:57:41;;;;;;;;;18.60;17.60;;;;;24.20;100.00;96331.28;6237589;28;96448;-65
2023/10/20 11:00:46;;;;;;;;;15.00;13.20;;;;;24.00;100.00;96352.59;6237073;28;96812;-65
2023/10/20 11:03:50;;;;;;;;;17.75;16.00;;;;;23.71;100.00;96349.38;6233993;28;96702;-64
2023/10/20 11:06:53;;;;;;;;;18.00;16.00;;;;;23.43;100.00;96334.34;6236099;27;97354;-65
2023/10/20 11:09:56;;;;;;;;;16.20;15.80;;;;;23.16;100.00;96345.28;6217783;28;98465;-64
2023/10/20 11:13:01;;;;;;;;;17.50;16.00;;;;;23.08;100.00;96356.47;6233783;27;96886;-65
2023/10/20 11:16:04;;;;;;;;;18.20;17.20;;;;;22.86;100.00;96345.09;6235831;28;96560;-64
2023/10/20 11:19:08;;;;;;;;;19.00;17.00;;;;;22.70;100.00;96349.84;6238117;28;97628;-64
2023/10/20 11:22:15;;;;;;;;;16.00;15.00;;;;;22.54;100.00;96356.53;6238049;27;96674;-64
2023/10/20 11:25:19;;;;;;;;;19.00;16.00;;;;;22.42;100.00;96366.50;6237107;27;97923;-64
2023/10/20 11:28:24;;;;;;;;;16.00;15.50;;;;;22.25;100.00;96352.38;6236335;28;96961;-64
2023/10/20 11:31:27;;;;;;;;;17.50;16.50;;;;;22.21;100.00;96363.28;6238400;28;96427;-64
2023/10/20 11:34:35;;;;;;;;;16.60;16.00;;;;;22.17;100.00;96361.59;6236796;28;97089;-63
2023/10/20 11:37:38;;;;;;;;;17.60;15.40;;;;;22.16;100.00;96366.31;6220021;28;96973;-63
2023/10/20 11:40:42;;;;;;;;;21.40;20.00;;;;;22.21;100.00;96373.47;6237566;27;96472;-63
2023/10/20 11:43:46;;;;;;;;;20.80;18.80;;;;;22.24;100.00;96359.00;6235884;28;98996;-64
2023/10/20 11:46:50;;;;;;;;;15.60;14.60;;;;;22.28;100.00;96368.94;6237761;28;96456;-62
2023/10/20 11:49:54;;;;;;;;;15.00;14.00;;;;;22.26;100.00;96365.75;6229440;28;96781;-63
2023/10/20 11:52:57;;;;;;;;;17.00;14.00;;;;;22.22;100.00;96364.88;6235956;28;97095;-63
2023/10/20 11:56:01;;;;;;;;;19.00;16.40;;;;;22.20;100.00;96358.94;6237132;28;97818;-63
2023/10/20 11:59:05;;;;;;;;;17.60;15.60;;;;;22.16;100.00;96358.06;6237707;28;97602;-63
2023/10/20 12:02:08;;;;;;;;;16.00;15.00;;;;;22.13;100.00;96353.31;6237258;28;96495;-63
2023/10/20 12:05:12;;;;;;;;;19.00;16.00;;;;;22.12;100.00;96362.69;6236580;28;96200;-62
2023/10/20 12:08:16;;;;;;;;;19.60;17.60;;;;;22.10;100.00;96358.69;6234291;28;96953;-64
2023/10/20 12:11:19;;;;;;;;;19.00;17.00;;;;;22.09;100.00;96349.66;6236171;28;96997;-63
2023/10/20 12:14:27;;;;;;;;;18.00;16.00;;;;;22.11;100.00;96352.06;6211636;28;96642;-63
2023/10/20 12:17:31;;;;;;;;;20.00;16.00;;;;;22.13;100.00;96347.03;6221246;28;97634;-62
2023/10/20 12:20:34;;;;;;;;;15.00;14.67;;;;;22.15;100.00;96340.00;6232246;28;96459;-62
2023/10/20 12:23:38;;;;;;;;;19.20;19.00;;;;;22.15;100.00;96342.75;6225909;28;96343;-63
2023/10/20 12:26:41;;;;;;;;;18.00;17.25;;;;;22.17;100.00;96339.66;6237126;27;96681;-62
2023/10/20 12:29:45;;;;;;;;;21.00;19.00;;;;;22.19;100.00;96318.13;6235734;28;96239;-63
2023/10/20 12:32:49;;;;;;;;;17.00;16.00;;;;;22.24;100.00;96326.06;6233708;28;98452;-63
2023/10/20 12:35:54;;;;;;;;;18.00;16.50;;;;;22.31;100.00;96312.53;6236979;28;96962;-62
2023/10/20 12:38:57;;;;;;;;;16.80;15.80;;;;;22.36;100.00;96315.78;6233639;28;96649;-62
2023/10/20 12:42:03;;;;;;;;;19.00;17.00;;;;;22.39;100.00;96309.56;6234820;28;96301;-62
2023/10/20 12:45:09;;;;;;;;;19.40;17.40;;;;;22.47;100.00;96305.03;6218679;28;97878;-63
2023/10/20 12:48:13;;;;;;;;;19.40;18.00;;;;;22.55;100.00;96300.47;6208814;28;97023;-63
2023/10/20 12:51:16;;;;;;;;;15.00;12.75;;;;;22.49;100.00;96283.47;6215425;28;97187;-62
2023/10/20 12:54:19;;;;;;;;;11.60;10.60;;;;;22.57;100.00;96303.66;6234256;28;96583;-62
2023/10/20 12:57:22;;;;;;;;;11.60;11.00;;;;;22.55;100.00;96298.50;6231559;28;96689;-62
2023/10/20 13:00:26;;;;;;;;;8.00;7.00;;;;;22.80;100.00;96282.56;6232478;28;96564;-63
2023/10/20 13:03:30;;;;;;;;;8.00;8.00;;;;;23.00;100.00;96280.56;6233327;28;96643;-62
2023/10/20 13:06:33;;;;;;;;;6.00;5.00;;;;;23.16;100.00;96292.25;6235334;28;96869;-63
2023/10/20 13:09:48;;;;;;;;;5.40;5.40;;;;;23.52;100.00;96280.72;6235037;28;97062;-62
2023/10/20 13:12:52;;;;;;;;;5.20;5.00;;;;;23.73;100.00;96283.00;6233581;28;96648;-62
2023/10/20 13:15:57;;;;;;;;;6.50;6.50;;;;;23.91;100.00;96286.81;6236744;27;96293;-62
2023/10/20 13:19:00;;;;;;;;;7.00;7.00;;;;;24.16;100.00;96281.66;6236350;28;97074;-62
2023/10/20 13:22:04;;;;;;;;;10.00;7.50;;;;;24.42;100.00;96292.66;6233643;28;98447;-63
2023/10/20 13:25:09;;;;;;;;;7.00;6.40;;;;;24.56;100.00;96286.53;6218563;28;97906;-64
2023/10/20 13:28:16;;;;;;;;;7.00;7.00;;;;;24.50;100.00;96286.06;6235184;28;97287;-62
2023/10/20 13:31:22;;;;;;;;;5.00;5.00;;;;;24.66;100.00;96304.38;6236665;28;96456;-62
2023/10/20 13:34:25;;;;;;;;;8.00;6.00;;;;;24.73;100.00;96310.75;6235572;28;97345;-63
2023/10/20 13:37:29;;;;;;;;;6.00;6.00;;;;;24.78;100.00;96313.16;6236637;27;97007;-62
2023/10/20 13:40:32;;;;;;;;;6.00;6.00;;;;;24.83;100.00;96314.78;6239569;28;96483;-64
2023/10/20 13:43:35;;;;;;;;;9.40;9.00;;;;;24.70;100.00;96310.69;6222278;28;97519;-64
2023/10/20 13:46:39;;;;;;;;;7.00;7.00;;;;;24.69;100.00;96328.41;6238804;28;98371;-63
2023/10/20 13:49:43;;;;;;;;;8.80;7.80;;;;;24.66;100.00;96327.19;6238289;28;98410;-62
2023/10/20 13:52:46;;;;;;;;;7.00;5.80;;;;;24.42;100.00;96322.97;6235698;28;98800;-63
2023/10/20 13:55:49;;;;;;;;;6.00;6.00;;;;;24.39;100.00;96317.38;6239919;27;96424;-62
2023/10/20 13:58:52;;;;;;;;;6.00;5.00;;;;;24.46;100.00;96314.75;6235117;28;96846;-66
2023/10/20 14:01:56;;;;;;;;;6.00;5.00;;;;;24.41;100.00;96315.84;6218708;28;98461;-63
2023/10/20 14:05:00;;;;;;;;;5.00;4.00;;;;;24.47;100.00;96314.38;6235272;28;97321;-64
2023/10/20 14:08:03;;;;;;;;;5.60;4.60;;;;;24.48;100.00;96304.16;6235722;28;96542;-63
2023/10/20 14:11:07;;;;;;;;;6.00;6.00;;;;;24.34;100.00;96310.25;6237586;28;96303;-63
2023/10/20 14:14:11;;;;;;;;;6.00;5.00;;;;;24.21;100.00;96286.88;6216003;28;98940;-63
2023/10/20 14:17:15;;;;;;;;;4.80;4.00;;;;;24.25;100.00;96306.19;6230712;28;96739;-63
2023/10/20 14:20:19;;;;;;;;;6.00;5.00;;;;;24.35;100.00;96314.59;6236854;27;97094;-64
2023/10/20 14:23:26;;;;;;;;;5.75;4.25;;;;;24.10;100.00;96308.72;6230392;28;96926;-63
2023/10/20 14:26:30;;;;;;;;;4.00;4.00;;;;;24.15;100.00;96304.84;6233301;28;96870;-62